Flight Track Log - Related Links

Times and Time Zones

All times are in EDT time to prevent confusion due to time zone crossing. See the SWA1025 flight status page for this flight to view local times or setup timezone preferences in your user account.

Time Position Orientation Groundspeed Altitude Reporting Facility
EDT Latitude Longitude Course Direction KTS MPH feet Rate Location/Type
Sat 04:39:57 PM 36.1500 -86.7000 270° West 172 198 1,200  Level Nashville TRACON
Sat 04:41:15 PM 36.1500 -86.7833 270° West 230 265 3,700 1,174 Climbing Nashville TRACON
Sat 04:42:15 PM 36.1833 -86.8667 296° West 272 313 3,900 1,755 Climbing Nashville TRACON
Sat 04:43:42 PM 36.2111 -86.9975 285° West 306 352 8,000 3,203 Climbing Memphis Center
Sat 04:44:43 PM 36.2389 -87.1044 288° West 311 358 11,800 2,975 Climbing Memphis Center
Sat 04:45:43 PM 36.2667 -87.2089 288° West 311 358 14,000 2,650 Climbing Memphis Center
Sat 04:46:43 PM 36.2906 -87.3342 283° West 350 403 17,100 2,900 Climbing Memphis Center
Sat 04:47:43 PM 36.3167 -87.4669 284° West 379 436 19,800 2,723 Climbing Memphis Center
Sat 04:48:42 PM 36.3447 -87.5975 285° West 398 458 22,500 1,900 Climbing Memphis Center
Sat 04:49:43 PM 36.3725 -87.7306 285° West 403 464 23,600 744 Climbing Memphis Center
Sat 04:50:43 PM 36.4006 -87.8714 284° West 417 480 24,000 252 Climbing Memphis Center
Sat 04:51:42 PM 36.4281 -88.0072 284° West 417 480 24,100 1,000 Climbing Memphis Center
Sat 04:52:43 PM 36.4553 -88.1303 285° West 412 474 26,000 1,934 Climbing Memphis Center
Sat 04:53:43 PM 36.4828 -88.2689 284° West 412 474 28,000 2,017 Climbing Memphis Center
Sat 04:54:42 PM 36.5103 -88.4128 283° West 417 480 30,000 1,650 Climbing Memphis Center
Sat 04:55:43 PM 36.5375 -88.5619 283° West 428 493 31,300 1,636 Climbing Memphis Center
Sat 04:56:43 PM 36.5667 -88.7061 284° West 428 493 33,300 1,850 Climbing Memphis Center
Sat 04:57:43 PM 36.5933 -88.8528 283° West 428 493 35,000 1,650 Climbing Memphis Center
Sat 04:58:43 PM 36.6283 -88.9944 287° West 428 493 36,600 1,350 Climbing Memphis Center
Sat 04:59:43 PM 36.6675 -89.1333 289° West 428 493 37,700 700 Climbing Memphis Center
Sat 05:00:43 PM 36.7042 -89.2778 288° West 438 504 38,000 150 Climbing Memphis Center
Sat 05:01:43 PM 36.7428 -89.4197 289° West 438 504 38,000  Level Memphis Center
Sat 05:02:43 PM 36.7794 -89.5669 287° West 438 504 38,000  Level Memphis Center
Sat 05:03:43 PM 36.8133 -89.7064 287° West 433 498 38,000  Level Memphis Center
Sat 05:04:43 PM 36.8494 -89.8514 287° West 433 498 38,000  Level Memphis Center
Sat 05:05:43 PM 36.8875 -89.9939 289° West 433 498 38,000  Level Memphis Center
Sat 05:06:43 PM 36.9233 -90.1364 287° West 438 504 38,000  Level Memphis Center
Sat 05:07:19 PM 36.9439 -90.2106 289° West 433 498 38,000  Level Kansas City Center
Sat 05:08:22 PM 36.9817 -90.3561 288° West 437 503 38,000  Level Kansas City Center
Sat 05:09:23 PM 37.0239 -90.5328 287° West 442 509 38,000  Level Kansas City Center
Sat 05:10:26 PM 37.0619 -90.6786 288° West 442 509 38,000  Level Kansas City Center
Sat 05:11:26 PM 37.0947 -90.8106 287° West 444 511 38,000  Level Kansas City Center
Sat 05:12:28 PM 37.1328 -90.9586 288° West 445 512 38,000  Level Kansas City Center
Sat 05:13:28 PM 37.1750 -91.1392 286° West 447 514 38,000  Level Kansas City Center
Sat 05:14:32 PM 37.2114 -91.2900 287° West 450 518 38,000  Level Kansas City Center
Sat 05:15:33 PM 37.2486 -91.4411 287° West 451 519 38,000  Level Kansas City Center
Sat 05:16:33 PM 37.2850 -91.5931 287° West 453 521 38,000  Level Kansas City Center
Sat 05:17:37 PM 37.3208 -91.7444 287° West 451 519 38,000  Level Kansas City Center
Sat 05:18:38 PM 37.3583 -91.8975 287° West 455 524 38,000  Level Kansas City Center
Sat 05:19:39 PM 37.3931 -92.0503 286° West 453 521 38,000  Level Kansas City Center
Sat 05:20:41 PM 37.4297 -92.2031 287° West 453 521 38,000  Level Kansas City Center
Sat 05:21:42 PM 37.4664 -92.3544 287° West 450 518 38,000  Level Kansas City Center
Sat 05:22:46 PM 37.5003 -92.5064 286° West 448 516 38,000  Level Kansas City Center
Sat 05:23:46 PM 37.5428 -92.6872 287° West 445 512 38,000  Level Kansas City Center
Sat 05:24:46 PM 37.5769 -92.8356 286° West 441 507 38,000  Level Kansas City Center
Sat 05:25:50 PM 37.6111 -92.9844 286° West 439 505 38,000  Level Kansas City Center
Sat 05:26:50 PM 37.6447 -93.1339 286° West 439 505 38,000  Level Kansas City Center
Sat 05:27:54 PM 37.6781 -93.2833 286° West 439 505 38,000  Level Kansas City Center
Sat 05:28:55 PM 37.7111 -93.4328 286° West 440 506 38,000  Level Kansas City Center
Sat 05:29:55 PM 37.7444 -93.5831 286° West 441 507 38,000  Level Kansas City Center
Sat 05:30:59 PM 37.7783 -93.7333 286° West 444 511 38,000  Level Kansas City Center
Sat 05:31:58 PM 37.8106 -93.8828 285° West 441 507 38,000  Level Kansas City Center
Sat 05:33:02 PM 37.8433 -94.0311 286° West 438 504 38,000  Level Kansas City Center
Sat 05:34:02 PM 37.8811 -94.2072 285° West 433 498 38,000  Level Kansas City Center
Sat 05:35:06 PM 37.9114 -94.3503 285° West 424 488 38,000  Level Kansas City Center
Sat 05:36:06 PM 37.9406 -94.4869 285° West 421 484 38,000  Level Kansas City Center
Sat 05:37:06 PM 37.9747 -94.6464 285° West 419 482 38,000  Level Kansas City Center
Sat 05:38:08 PM 38.0031 -94.7850 285° West 421 484 38,000  Level Kansas City Center
Sat 05:39:12 PM 38.0328 -94.9203 286° West 419 482 38,000  Level Kansas City Center
Sat 05:40:13 PM 38.0650 -95.0822 284° West 421 484 38,000  Level Kansas City Center
Sat 05:41:15 PM 38.0942 -95.2225 285° West 425 489 38,000  Level Kansas City Center
Sat 05:42:15 PM 38.1267 -95.3850 284° West 422 486 38,000  Level Kansas City Center
Sat 05:43:19 PM 38.1553 -95.5242 285° West 425 489 38,000  Level Kansas City Center
Sat 05:44:19 PM 38.1847 -95.6669 285° West 433 498 38,000  Level Kansas City Center
Sat 05:45:20 PM 38.2169 -95.8325 284° West 432 497 38,000  Level Kansas City Center
Sat 05:46:22 PM 38.2453 -95.9736 284° West 431 496 38,000  Level Kansas City Center
Sat 05:47:24 PM 38.2781 -96.1397 284° West 432 497 38,000  Level Kansas City Center
Sat 05:48:26 PM 38.3069 -96.2817 285° West 431 496 38,000  Level Kansas City Center
Sat 05:49:26 PM 38.3331 -96.4242 283° West 431 496 38,000  Level Kansas City Center
Sat 05:50:28 PM 38.3639 -96.5858 284° West 430 495 38,000  Level Kansas City Center
Sat 05:51:30 PM 38.3925 -96.7342 284° West 431 496 38,000  Level Kansas City Center
Sat 05:52:31 PM 38.4211 -96.8817 284° West 431 496 38,000  Level Kansas City Center
Sat 05:53:33 PM 38.4481 -97.0294 283° West 430 495 38,000  Level Kansas City Center
Sat 05:54:34 PM 38.4769 -97.1769 284° West 430 495 38,000  Level Kansas City Center
Sat 05:55:38 PM 38.5039 -97.3250 283° West 431 496 38,000  Level Kansas City Center
Sat 05:56:38 PM 38.5369 -97.5028 283° West 431 496 38,000  Level Kansas City Center
Sat 05:57:39 PM 38.5639 -97.6511 283° West 431 496 38,000  Level Kansas City Center
Sat 05:58:40 PM 38.5914 -97.7997 283° West 432 497 38,000  Level Kansas City Center
Sat 05:59:44 PM 38.6172 -97.9492 283° West 433 498 38,000  Level Kansas City Center
Sat 06:00:45 PM 38.6442 -98.0983 283° West 432 497 38,000  Level Kansas City Center
Sat 06:01:46 PM 38.6708 -98.2458 283° West 430 495 38,000  Level Kansas City Center
Sat 06:02:47 PM 38.7019 -98.4253 283° West 431 496 38,000  Level Kansas City Center
Sat 06:03:48 PM 38.7283 -98.5731 283° West 428 493 38,000  Level Kansas City Center
Sat 06:04:51 PM 38.7539 -98.7208 283° West 427 491 38,000  Level Kansas City Center
Sat 06:05:52 PM 38.7792 -98.8692 282° West 428 493 38,000  Level Kansas City Center
Sat 06:06:55 PM 38.8039 -99.0158 282° West 424 488 38,000  Level Kansas City Center
Sat 06:07:56 PM 38.8292 -99.1653 282° West 428 493 38,000  Level Kansas City Center
Sat 06:08:59 PM 38.8508 -99.3169 280° West 433 498 38,000  Level Kansas City Center
Sat 06:09:59 PM 38.8500 -99.4731 270° West 435 501 38,000  Level Kansas City Center
Sat 06:11:00 PM 38.8508 -99.6514 270° West 436 502 38,000  Level Kansas City Center
Sat 06:12:03 PM 38.8531 -99.8239 271° West 435 501 38,000  Level Kansas City Center
Sat 06:13:03 PM 38.8539 -99.9714 270° West 434 499 38,000  Level Kansas City Center
Sat 06:14:07 PM 38.8544 -100.1161 270° West 429 494 38,000  Level Kansas City Center
Sat 06:15:07 PM 38.8550 -100.2869 270° West 429 494 38,000  Level Kansas City Center
Sat 06:15:46 PM 38.8550 -100.3814 270° West 428 493 38,000  Level Denver Center
Sat 06:16:59 PM 38.8556 -100.5264 270° West 426 490 38,000  Level Denver Center
Sat 06:18:01 PM 38.8550 -100.7189 270° West 424 488 38,000  Level Denver Center
Sat 06:19:03 PM 38.8544 -100.8867 270° West 421 484 38,000  Level Denver Center
Sat 06:20:04 PM 38.8544 -101.0336 270° West 429 494 38,000  Level Denver Center
Sat 06:21:06 PM 38.8536 -101.2031 270° West 428 493 38,000  Level Denver Center
Sat 06:22:08 PM 38.8533 -101.3497 270° West 432 497 38,000  Level Denver Center
Sat 06:23:10 PM 38.8517 -101.4989 269° West 437 503 38,000  Level Denver Center
Sat 06:24:12 PM 38.8503 -101.6700 269° West 433 498 38,000 -178 Level Denver Center
Sat 06:25:25 PM 38.8494 -101.8186 270° West 435 501 37,600 -1,022 Descending Denver Center
Sat 06:26:27 PM 38.8467 -102.0153 269° West 434 499 35,700 -1,544 Descending Denver Center
Sat 06:27:41 PM 38.8439 -102.1864 269° West 433 498 34,100 -750 Descending Denver Center
Sat 06:28:43 PM 38.8408 -102.3589 269° West 435 501 34,000 -48 Descending Denver Center
Sat 06:29:45 PM 38.8522 -102.5303 275° West 433 498 34,000  Level Denver Center
Sat 06:30:47 PM 38.9053 -102.6589 298° West 425 489 34,000  Level Denver Center
Sat 06:31:48 PM 38.9656 -102.8131 297° West 424 488 34,000 -133 Level Denver Center
Sat 06:33:02 PM 39.0181 -102.9483 297° West 424 488 33,700 -1,500 Descending Denver Center
Sat 06:34:04 PM 39.0814 -103.1103 297° West 424 488 30,600 -2,758 Descending Denver Center
Sat 06:35:06 PM 39.1317 -103.2428 296° West 415 478 28,000 -2,341 Descending Denver Center
Sat 06:36:07 PM 39.1822 -103.3717 297° West 407 468 25,800 -2,146 Descending Denver Center
Sat 06:37:09 PM 39.2300 -103.4972 296° West 395 455 23,600 -2,074 Descending Denver Center
Sat 06:38:23 PM 39.2853 -103.6442 296° West 383 441 21,100 -2,162 Descending Denver Center
Sat 06:39:25 PM 39.3378 -103.7844 296° West 366 421 18,700 -1,854 Descending Denver Center
Sat 06:40:26 PM 39.3808 -103.8964 296° West 353 406 17,300 -1,268 Descending Denver Center
Sat 06:41:28 PM 39.3994 -104.0086 282° West 318 366 16,100 -1,161 Descending Denver Center
Sat 06:42:30 PM 39.4042 -104.1189 273° West 305 351 14,900 -976 Descending Denver Center
Sat 06:43:31 PM 39.3603 -104.2014 235° Southwest 281 323 14,100 -927 Descending Denver Center
Sat 06:44:33 PM 39.3281 -104.2742 240° Southwest 268 308 13,000 -484 Descending Denver Center
Sat 06:45:35 PM 39.3400 -104.3622 280° West 256 295 13,100 -585 Climbing Denver Center
Sat 06:46:36 PM 39.3711 -104.4517 294° West 258 297 11,800 -1,366 Descending Denver Center
Sat 06:47:38 PM 39.4350 -104.4947 333° Northwest 258 297 10,300 -1,317 Descending Denver Center
Sat 06:48:39 PM 39.5014 -104.5344 335° Northwest 265 305 9,100 -634 Descending Denver Center
Sat 06:49:41 PM 39.5686 -104.5783 333° Northwest 247 284 9,000 -532 Descending Denver Center
Sat 06:50:43 PM 39.6333 -104.6183 335° Northwest 261 300 8,000 -634 Descending Denver Center
Sat 06:51:44 PM 39.6997 -104.6436 344° North 232 267 7,700 -585 Descending Denver Center
Sat 06:52:46 PM 39.7583 -104.6431 360° North 213 245 6,800 -878 Descending Denver Center
Sat 06:53:47 PM 39.8058 -104.6431 360° North 172 198 5,900 -732 Descending Denver Center
Sat 06:54:49 PM 39.8492 -104.6411 North 155 178 5,300 -581 Descending Denver Center
Sat 06:56:00 PM 39.8500 -104.6667 North  Level FlightAware Approximate
Sat 07:03:00 PM 39.8617 -104.6732 North  Level Estimated
Sat 07:04:00 PM 39.8617 -104.6732 North  Level Estimated

Login

Don't have an account? Register now (free) for customized features, flight alerts, and more!